createdAt,value
2023-03-03T00:00:55.572Z,21.73
2023-03-03T00:03:24.523Z,20.55
2023-03-03T00:05:52.135Z,24.75
2023-03-03T00:08:19.998Z,21.80
2023-03-03T00:10:47.208Z,24.67
2023-03-03T00:13:20.858Z,22.90
2023-03-03T00:15:48.166Z,24.67
2023-03-03T00:18:36.039Z,23.30
2023-03-03T00:21:11.212Z,25.33
2023-03-03T00:26:18.226Z,26.20
2023-03-03T00:28:47.849Z,21.98
2023-03-03T00:31:31.709Z,24.88
2023-03-03T00:34:17.790Z,28.88
2023-03-03T00:36:44.746Z,23.60
2023-03-03T00:39:44.546Z,23.63
2023-03-03T00:42:15.966Z,23.92
2023-03-03T00:44:46.505Z,24.92
2023-03-03T00:47:15.996Z,24.88
2023-03-03T00:49:43.269Z,23.48
2023-03-03T00:52:20.921Z,29.25
2023-03-03T00:54:47.843Z,22.65
2023-03-03T00:57:14.485Z,30.35
2023-03-03T00:59:41.316Z,25.10
2023-03-03T01:02:07.975Z,29.50
2023-03-03T01:04:34.537Z,27.65
2023-03-03T01:07:01.190Z,24.15
2023-03-03T01:09:27.794Z,26.00
2023-03-03T01:25:43.300Z,29.17
2023-03-03T01:28:10.163Z,29.95
2023-03-03T01:30:36.813Z,30.08
2023-03-03T01:33:03.577Z,30.52
2023-03-03T01:35:30.732Z,30.73
2023-03-03T01:37:58.177Z,29.42
2023-03-03T01:40:27.821Z,30.08
2023-03-03T01:42:54.470Z,33.63
2023-03-03T01:45:24.709Z,34.47
2023-03-03T01:48:01.429Z,33.90
2023-03-03T01:50:36.745Z,35.63
2023-03-03T01:53:06.371Z,33.15
2023-03-03T01:55:41.172Z,35.88
2023-03-03T01:58:18.388Z,35.53
2023-03-03T02:00:50.522Z,31.90
2023-03-03T02:03:19.868Z,35.17
2023-03-03T02:05:46.889Z,36.92
2023-03-03T02:08:18.907Z,38.75
2023-03-03T02:10:47.454Z,38.50
2023-03-03T02:13:14.336Z,38.00
2023-03-03T02:15:40.983Z,40.55
2023-03-03T02:18:12.424Z,38.70
2023-03-03T02:20:53.854Z,37.75
2023-03-03T02:23:35.395Z,37.40
2023-03-03T02:26:11.981Z,41.65
2023-03-03T02:28:39.852Z,37.85
2023-03-03T02:31:13.044Z,44.35
2023-03-03T02:33:45.079Z,39.97
2023-03-03T02:36:16.831Z,38.67
2023-03-03T02:39:21.372Z,40.97
2023-03-03T02:42:00.171Z,39.40
2023-03-03T02:44:28.953Z,40.90
2023-03-03T02:46:56.547Z,42.45
2023-03-03T02:49:32.339Z,39.92
2023-03-03T02:52:00.369Z,44.38
2023-03-03T02:54:30.107Z,42.42
2023-03-03T02:56:57.999Z,44.67
2023-03-03T02:59:24.540Z,42.28
2023-03-03T03:01:51.769Z,43.15
2023-03-03T03:04:21.315Z,43.70
2023-03-03T03:06:48.509Z,47.70
2023-03-03T03:09:16.249Z,42.45
2023-03-03T03:11:43.202Z,47.17
2023-03-03T03:14:12.016Z,48.25
2023-03-03T03:16:39.110Z,46.78
2023-03-03T03:19:06.810Z,45.47
2023-03-03T03:21:33.725Z,46.95
2023-03-03T03:24:00.500Z,49.42
2023-03-03T03:26:27.261Z,49.92
2023-03-03T03:28:53.981Z,50.17
2023-03-03T03:31:21.845Z,49.08
2023-03-03T03:33:49.095Z,49.42
2023-03-03T03:36:16.654Z,49.40
2023-03-03T03:38:43.559Z,53.58
2023-03-03T03:41:12.768Z,47.00
2023-03-03T03:43:39.912Z,51.15
2023-03-03T03:46:07.370Z,49.80
2023-03-03T03:48:34.291Z,54.25
2023-03-03T03:51:00.959Z,51.95
2023-03-03T03:53:27.616Z,50.60
2023-03-03T03:55:54.347Z,54.22
2023-03-03T03:58:21.203Z,58.80
2023-03-03T04:00:48.478Z,57.17
2023-03-03T04:03:15.183Z,53.85
2023-03-03T04:05:42.489Z,53.00
2023-03-03T04:08:09.570Z,57.13
2023-03-03T04:10:36.550Z,52.90
2023-03-03T04:13:03.206Z,59.10
2023-03-03T04:15:29.796Z,56.85
2023-03-03T04:17:56.468Z,57.13
2023-03-03T04:20:23.151Z,58.45
2023-03-03T04:22:49.800Z,63.42
2023-03-03T04:25:17.456Z,56.20
2023-03-03T04:27:44.735Z,61.70
2023-03-03T04:30:12.771Z,63.00
2023-03-03T04:32:39.404Z,64.15
2023-03-03T04:35:08.511Z,60.28
2023-03-03T04:37:37.504Z,56.60
2023-03-03T04:40:08.332Z,65.45
2023-03-03T04:42:35.438Z,58.78
2023-03-03T04:45:02.812Z,61.38
2023-03-03T04:47:29.380Z,58.70
2023-03-03T04:49:55.953Z,65.82
2023-03-03T04:52:22.539Z,61.42
2023-03-03T04:54:49.120Z,62.40
2023-03-03T04:57:15.746Z,62.65
2023-03-03T04:59:42.327Z,66.63
2023-03-03T05:02:09.046Z,67.75
2023-03-03T05:04:35.724Z,68.90
2023-03-03T05:07:02.334Z,64.60
2023-03-03T05:09:29.000Z,63.97
2023-03-03T05:11:55.700Z,71.97
2023-03-03T05:14:22.442Z,64.13
2023-03-03T05:16:49.128Z,68.20
2023-03-03T05:19:15.765Z,61.80
2023-03-03T05:21:42.551Z,65.28
2023-03-03T05:24:10.683Z,66.88
2023-03-03T05:26:37.408Z,67.25
2023-03-03T05:29:04.530Z,66.35
2023-03-03T05:31:31.144Z,68.18
2023-03-03T05:33:57.857Z,70.38
2023-03-03T05:36:25.269Z,69.32
2023-03-03T05:38:52.207Z,68.03
2023-03-03T05:41:18.982Z,69.80
2023-03-03T05:43:45.741Z,68.00
2023-03-03T05:46:12.528Z,69.53
2023-03-03T05:48:39.366Z,78.25
2023-03-03T05:51:06.097Z,75.65
2023-03-03T05:53:34.571Z,66.22
2023-03-03T05:56:01.165Z,69.88
2023-03-03T05:58:28.352Z,68.82
2023-03-03T06:00:55.252Z,67.47
2023-03-03T06:03:21.915Z,74.18
2023-03-03T06:05:48.724Z,70.07
2023-03-03T06:08:15.370Z,70.03
2023-03-03T06:10:42.019Z,66.85
2023-03-03T06:13:08.602Z,72.00
2023-03-03T06:15:35.312Z,68.15
2023-03-03T06:18:02.016Z,74.63
2023-03-03T06:20:28.712Z,73.28
2023-03-03T06:22:55.372Z,69.82
2023-03-03T06:25:21.965Z,72.43
2023-03-03T06:27:48.470Z,68.38
2023-03-03T06:30:15.373Z,68.45
2023-03-03T06:32:42.242Z,72.18
2023-03-03T06:35:08.996Z,71.60
2023-03-03T06:37:35.668Z,70.00
2023-03-03T06:40:03.823Z,66.72
2023-03-03T06:42:30.628Z,73.35
2023-03-03T06:44:57.261Z,65.72
2023-03-03T06:47:23.862Z,69.38
2023-03-03T06:49:50.491Z,68.25
2023-03-03T06:52:25.386Z,65.82
2023-03-03T06:54:55.274Z,68.22
2023-03-03T06:57:33.366Z,67.72
2023-03-03T07:00:20.151Z,63.60
2023-03-03T07:03:12.200Z,68.57
2023-03-03T07:05:38.934Z,68.22
2023-03-03T07:08:17.011Z,67.82
2023-03-03T07:10:45.040Z,69.63
2023-03-03T07:13:19.394Z,69.97
2023-03-03T07:15:47.961Z,69.55
2023-03-03T07:18:37.875Z,73.93
2023-03-03T07:21:30.388Z,72.00
2023-03-03T07:23:59.109Z,74.53
2023-03-03T07:26:30.527Z,78.13
2023-03-03T07:29:04.006Z,72.55
2023-03-03T07:31:35.499Z,76.25
2023-03-03T07:34:05.826Z,77.40
2023-03-03T07:36:37.486Z,73.18
2023-03-03T07:39:33.855Z,77.68
2023-03-03T07:42:23.632Z,71.80
2023-03-03T07:44:52.291Z,69.03
2023-03-03T07:47:26.183Z,72.30
2023-03-03T07:49:55.552Z,64.45
2023-03-03T07:52:30.575Z,69.30
2023-03-03T07:55:00.822Z,63.63
2023-03-03T07:57:36.990Z,63.60
2023-03-03T08:00:16.489Z,60.45
2023-03-03T08:03:00.375Z,62.67
2023-03-03T08:05:39.769Z,62.38
2023-03-03T08:08:21.832Z,65.03
2023-03-03T08:10:52.425Z,60.72
2023-03-03T08:13:43.110Z,59.60
2023-03-03T08:16:09.709Z,62.60
2023-03-03T08:18:48.103Z,63.30
2023-03-03T08:21:26.208Z,62.78
2023-03-03T08:23:53.758Z,60.72
2023-03-03T08:26:21.985Z,61.03
2023-03-03T08:28:49.074Z,59.75
2023-03-03T08:31:30.898Z,59.97
2023-03-03T08:34:04.509Z,58.70
2023-03-03T08:36:33.661Z,53.05
2023-03-03T08:39:01.296Z,54.00
2023-03-03T08:41:27.864Z,57.33
2023-03-03T08:43:54.514Z,56.65
2023-03-03T08:46:21.335Z,55.78
2023-03-03T08:48:48.060Z,57.28
2023-03-03T08:51:14.584Z,59.08
2023-03-03T08:53:41.627Z,58.83
2023-03-03T08:56:10.041Z,57.20
2023-03-03T08:58:36.862Z,56.80
2023-03-03T09:01:03.900Z,49.92
2023-03-03T09:03:30.692Z,52.42
2023-03-03T09:05:57.564Z,47.10
2023-03-03T09:08:24.197Z,50.17
2023-03-03T09:10:50.870Z,49.63
2023-03-03T09:13:19.352Z,44.90
2023-03-03T09:15:46.461Z,49.28
2023-03-03T09:18:24.659Z,51.33
2023-03-03T09:20:57.322Z,48.92
2023-03-03T09:23:23.914Z,49.78
2023-03-03T09:25:51.796Z,50.60
2023-03-03T09:28:30.076Z,51.42
2023-03-03T09:31:07.374Z,51.03
2023-03-03T09:33:46.054Z,46.72
2023-03-03T09:36:24.464Z,46.05
2023-03-03T09:38:51.332Z,42.35
2023-03-03T09:41:41.499Z,46.15
2023-03-03T09:44:08.041Z,44.10
2023-03-03T09:46:37.637Z,45.15
2023-03-03T09:49:31.247Z,45.72
2023-03-03T09:52:36.744Z,45.20
2023-03-03T09:55:12.171Z,49.03
2023-03-03T09:58:12.786Z,48.60
2023-03-03T10:01:04.405Z,47.97
2023-03-03T10:03:37.399Z,47.72
2023-03-03T10:06:22.728Z,47.63
2023-03-03T10:08:52.128Z,44.95
2023-03-03T10:11:31.798Z,47.22
2023-03-03T10:14:28.602Z,43.63
2023-03-03T10:17:07.649Z,44.08
2023-03-03T10:19:39.169Z,44.55
2023-03-03T10:22:24.367Z,44.25
2023-03-03T10:25:16.504Z,43.85
2023-03-03T10:28:18.647Z,40.65
2023-03-03T10:31:10.402Z,41.03
2023-03-03T10:34:08.369Z,39.88
2023-03-03T10:36:49.401Z,42.00
2023-03-03T10:39:28.275Z,41.63
2023-03-03T10:42:08.446Z,38.47
2023-03-03T10:44:53.117Z,37.13
2023-03-03T10:47:35.581Z,35.20
2023-03-03T10:50:12.435Z,37.88
2023-03-03T10:53:13.572Z,36.83
2023-03-03T10:55:58.992Z,35.53
2023-03-03T10:59:02.562Z,32.67
2023-03-03T11:01:50.898Z,33.85
2023-03-03T11:04:43.395Z,32.92
2023-03-03T11:07:31.343Z,31.05
2023-03-03T11:10:19.630Z,31.88
2023-03-03T11:13:20.062Z,31.95
2023-03-03T11:16:22.266Z,31.15
2023-03-03T11:19:11.382Z,30.90
2023-03-03T11:21:56.121Z,28.70
2023-03-03T11:24:52.083Z,28.80
2023-03-03T11:30:03.341Z,29.50
2023-03-03T11:32:40.100Z,28.77
2023-03-03T11:35:32.060Z,27.92
2023-03-03T11:38:36.241Z,29.92
2023-03-03T11:41:31.250Z,29.27
2023-03-03T11:44:08.644Z,27.75
2023-03-03T11:47:03.112Z,29.80
2023-03-03T11:50:00.487Z,30.75
2023-03-03T11:52:45.437Z,30.85
2023-03-03T11:55:23.868Z,29.10
2023-03-03T11:58:12.185Z,30.45
2023-03-03T12:01:04.683Z,31.98
2023-03-03T12:03:56.524Z,25.05
2023-03-03T12:06:43.731Z,25.77
2023-03-03T12:09:36.619Z,26.85
2023-03-03T12:12:11.886Z,24.92
2023-03-03T12:17:43.547Z,26.45
2023-03-03T12:20:22.167Z,25.88
2023-03-03T12:23:20.190Z,46.20
2023-03-03T12:26:04.384Z,26.13
2023-03-03T12:28:41.958Z,23.45
2023-03-03T12:32:04.067Z,24.67
2023-03-03T12:34:41.245Z,25.42
2023-03-03T12:37:49.432Z,29.30
2023-03-03T12:40:31.560Z,23.85
2023-03-03T12:43:18.139Z,25.77
2023-03-03T12:46:12.298Z,24.70
2023-03-03T12:48:42.967Z,24.63
2023-03-03T12:51:21.364Z,23.02
2023-03-03T12:54:28.854Z,24.58
2023-03-03T12:57:05.793Z,22.23
2023-03-03T12:59:56.522Z,22.52
2023-03-03T13:02:45.290Z,22.23
2023-03-03T13:05:27.002Z,23.90
2023-03-03T13:08:15.558Z,24.92
2023-03-03T13:11:00.043Z,20.73
2023-03-03T13:13:50.288Z,22.27
2023-03-03T13:16:40.349Z,23.17
2023-03-03T13:19:09.895Z,23.08
2023-03-03T13:22:02.939Z,22.80
2023-03-03T13:24:39.080Z,20.98
2023-03-03T13:27:20.183Z,19.30
2023-03-03T13:30:12.982Z,20.08
2023-03-03T13:33:11.306Z,21.95
2023-03-03T13:35:48.158Z,20.52
2023-03-03T13:38:22.186Z,20.17
2023-03-03T13:40:50.942Z,19.10
2023-03-03T13:43:22.533Z,20.27
2023-03-03T13:46:10.937Z,19.50
2023-03-03T13:48:55.870Z,20.73
2023-03-03T13:51:43.996Z,19.55
2023-03-03T13:54:25.615Z,20.38
2023-03-03T13:57:11.166Z,20.65
2023-03-03T13:59:46.841Z,20.38
2023-03-03T14:02:49.814Z,19.35
2023-03-03T14:05:41.319Z,17.90
2023-03-03T14:08:39.656Z,17.83
2023-03-03T14:11:16.840Z,17.25
2023-03-03T14:13:54.934Z,18.67
2023-03-03T14:16:21.654Z,17.02
2023-03-03T14:18:56.244Z,17.48
2023-03-03T14:21:52.640Z,18.05
2023-03-03T14:24:25.185Z,19.13
2023-03-03T14:26:53.101Z,18.15
2023-03-03T14:29:28.792Z,18.83
2023-03-03T14:31:56.265Z,16.40
2023-03-03T14:34:22.887Z,17.13
2023-03-03T14:36:53.914Z,16.42
2023-03-03T14:39:32.790Z,16.50
2023-03-03T14:42:00.511Z,17.40
2023-03-03T14:44:53.655Z,16.30
2023-03-03T14:47:25.061Z,18.85
2023-03-03T14:49:54.644Z,16.63
2023-03-03T14:52:29.122Z,16.35
2023-03-03T14:54:59.697Z,18.92
2023-03-03T14:57:35.879Z,18.10
2023-03-03T15:00:10.902Z,16.77
2023-03-03T15:02:51.608Z,16.83
2023-03-03T15:05:22.697Z,16.65
2023-03-03T15:07:53.433Z,17.30
2023-03-03T15:10:38.089Z,18.58
2023-03-03T15:13:19.973Z,19.70
2023-03-03T15:15:58.583Z,17.33
2023-03-03T15:18:26.313Z,17.58
2023-03-03T15:21:05.290Z,21.13
2023-03-03T15:23:41.187Z,19.85
2023-03-03T15:26:19.817Z,17.80
2023-03-03T15:28:54.242Z,17.80
2023-03-03T15:31:42.867Z,16.17
2023-03-03T15:34:43.934Z,24.27
2023-03-03T15:37:47.189Z,15.07
2023-03-03T15:40:27.394Z,18.13
2023-03-03T15:43:12.665Z,17.55
2023-03-03T15:45:49.871Z,17.38
2023-03-03T15:48:34.338Z,16.65
2023-03-03T15:51:24.587Z,14.32
2023-03-03T15:54:17.943Z,15.38
2023-03-03T15:56:59.790Z,14.05
2023-03-03T15:59:48.417Z,15.00
2023-03-03T16:02:33.947Z,15.45
2023-03-03T16:05:39.148Z,14.85
2023-03-03T16:08:24.838Z,15.18
2023-03-03T16:13:54.351Z,13.20
2023-03-03T16:16:45.652Z,14.32
2023-03-03T16:19:12.315Z,13.38
2023-03-03T16:22:04.624Z,13.07
2023-03-03T16:24:56.970Z,14.18
2023-03-03T16:27:32.365Z,14.30
2023-03-03T16:30:23.155Z,11.48
2023-03-03T16:33:14.517Z,13.18
2023-03-03T16:36:19.062Z,12.10
2023-03-03T16:38:56.872Z,12.65
2023-03-03T16:41:41.669Z,13.60
2023-03-03T16:44:37.412Z,10.73
2023-03-03T16:47:35.441Z,12.50
2023-03-03T16:50:23.308Z,11.48
2023-03-03T16:53:10.512Z,11.35
2023-03-03T16:55:51.954Z,11.80
2023-03-03T16:58:21.799Z,12.63
2023-03-03T17:01:05.701Z,11.32
2023-03-03T17:03:38.442Z,11.00
2023-03-03T17:06:48.377Z,12.10
2023-03-03T17:09:44.141Z,14.20
2023-03-03T17:12:32.752Z,13.57
2023-03-03T17:15:08.573Z,13.60
2023-03-03T17:17:58.152Z,14.32
2023-03-03T17:20:46.484Z,15.10
2023-03-03T17:23:21.326Z,13.50
2023-03-03T17:26:18.737Z,15.38
2023-03-03T17:29:23.589Z,14.80
2023-03-03T17:32:11.112Z,17.20
2023-03-03T17:35:00.011Z,15.48
2023-03-03T17:37:42.070Z,15.88
2023-03-03T17:40:23.119Z,15.38
2023-03-03T17:43:07.635Z,17.40
2023-03-03T17:45:42.678Z,17.67
2023-03-03T17:48:44.077Z,16.25
2023-03-03T17:51:55.591Z,19.13
2023-03-03T17:54:28.406Z,18.02
2023-03-03T17:56:54.994Z,16.60
2023-03-03T18:00:01.485Z,17.10
2023-03-03T18:02:39.624Z,16.25
2023-03-03T18:05:26.780Z,19.40
2023-03-03T18:12:38.058Z,18.45
2023-03-03T18:15:10.828Z,18.70
2023-03-03T18:17:53.711Z,21.77
2023-03-03T18:20:55.312Z,18.48
2023-03-03T18:23:41.951Z,16.60
2023-03-03T18:26:33.562Z,15.95
2023-03-03T18:29:20.054Z,16.17
2023-03-03T18:31:48.133Z,17.60
2023-03-03T18:34:20.632Z,16.23
2023-03-03T18:37:00.759Z,16.52
2023-03-03T18:40:02.620Z,15.77
2023-03-03T18:42:48.744Z,17.15
2023-03-03T18:45:18.154Z,17.38
2023-03-03T18:48:03.248Z,20.48
2023-03-03T18:50:35.695Z,22.27
2023-03-03T18:53:17.724Z,18.08
2023-03-03T18:55:45.852Z,17.85
2023-03-03T18:58:15.488Z,18.15
2023-03-03T19:00:50.488Z,22.98
2023-03-03T19:03:28.295Z,20.15
2023-03-03T19:05:57.897Z,19.48
2023-03-03T19:08:27.061Z,18.42
2023-03-03T19:11:05.119Z,18.40
2023-03-03T19:13:34.938Z,18.27
2023-03-03T19:16:21.834Z,18.02
2023-03-03T19:19:00.791Z,19.55
2023-03-03T19:21:36.303Z,20.00
2023-03-03T19:24:04.403Z,21.10
2023-03-03T19:26:47.511Z,19.80
2023-03-03T19:29:22.402Z,18.88
2023-03-03T19:32:00.264Z,18.30
2023-03-03T19:34:42.608Z,20.50
2023-03-03T19:37:34.992Z,20.98
2023-03-03T19:40:21.941Z,22.92
2023-03-03T19:43:12.590Z,22.08
2023-03-03T19:46:01.030Z,20.20
2023-03-03T19:48:48.405Z,17.27
2023-03-03T19:51:52.722Z,19.63
2023-03-03T19:54:45.747Z,17.67
2023-03-03T19:57:40.497Z,21.92
2023-03-03T20:00:42.457Z,22.60
2023-03-03T20:03:33.979Z,22.45
2023-03-03T20:06:12.709Z,23.75
2023-03-03T20:09:12.289Z,23.48
2023-03-03T20:12:07.443Z,22.55
2023-03-03T20:14:46.013Z,19.35
2023-03-03T20:17:32.720Z,18.48
2023-03-03T20:20:17.984Z,22.52
2023-03-03T20:23:05.410Z,18.45
2023-03-03T20:25:45.680Z,21.70
2023-03-03T20:28:27.290Z,19.88
2023-03-03T20:31:33.453Z,18.80
2023-03-03T20:34:42.086Z,18.75
2023-03-03T20:37:31.853Z,19.63
2023-03-03T20:40:27.498Z,20.25
2023-03-03T20:43:07.464Z,19.75
2023-03-03T20:45:58.580Z,18.65
2023-03-03T20:48:40.160Z,19.55
2023-03-03T20:51:17.586Z,21.95
2023-03-03T20:54:03.008Z,21.48
2023-03-03T20:56:53.357Z,21.00
2023-03-03T20:59:36.224Z,22.55
2023-03-03T21:02:19.594Z,18.60
2023-03-03T21:04:46.220Z,20.00
2023-03-03T21:07:26.452Z,22.17
2023-03-03T21:10:12.395Z,18.33
2023-03-03T21:12:38.921Z,19.67
2023-03-03T21:15:20.871Z,19.67
2023-03-03T21:17:47.473Z,22.20
2023-03-03T21:20:43.478Z,19.50
2023-03-03T21:23:11.735Z,18.83
2023-03-03T21:25:41.158Z,18.52
2023-03-03T21:28:19.981Z,20.42
2023-03-03T21:31:05.466Z,22.30
2023-03-03T21:36:08.756Z,23.38
2023-03-03T21:38:37.644Z,22.88
2023-03-03T21:41:05.276Z,24.08
2023-03-03T21:43:45.449Z,23.65
2023-03-03T21:46:12.979Z,23.45
2023-03-03T21:48:42.842Z,22.15
2023-03-03T21:51:10.720Z,22.00
2023-03-03T21:53:37.389Z,21.45
2023-03-03T21:56:04.262Z,24.58
2023-03-03T21:58:30.846Z,21.10
2023-03-03T22:00:57.573Z,23.50
2023-03-03T22:03:24.226Z,22.73
2023-03-03T22:05:50.802Z,24.08
2023-03-03T22:08:22.410Z,22.67
2023-03-03T22:10:55.958Z,26.05
2023-03-03T22:13:24.219Z,24.00
2023-03-03T22:15:51.014Z,23.13
2023-03-03T22:18:19.104Z,23.98
2023-03-03T22:20:46.833Z,22.77
2023-03-03T22:23:14.687Z,23.67
2023-03-03T22:25:41.824Z,24.77
2023-03-03T22:28:08.964Z,22.67
2023-03-03T22:30:36.693Z,23.73
2023-03-03T22:33:03.653Z,26.08
2023-03-03T22:35:30.597Z,24.02
2023-03-03T22:37:57.599Z,30.35
2023-03-03T22:40:24.192Z,24.27
2023-03-03T22:42:50.975Z,24.67
2023-03-03T22:45:17.683Z,25.27
2023-03-03T22:47:44.346Z,24.48
2023-03-03T22:50:11.477Z,23.45
2023-03-03T22:52:38.209Z,26.17
2023-03-03T22:55:05.493Z,25.75
2023-03-03T22:57:32.040Z,24.35
2023-03-03T22:59:59.960Z,26.90
2023-03-03T23:02:26.651Z,29.08
2023-03-03T23:04:58.021Z,34.70
2023-03-03T23:07:26.243Z,29.60
2023-03-03T23:09:52.916Z,29.27
2023-03-03T23:12:19.559Z,26.88
2023-03-03T23:14:46.104Z,26.70
2023-03-03T23:17:12.673Z,26.75
2023-03-03T23:19:39.334Z,26.38
2023-03-03T23:22:05.967Z,26.60
2023-03-03T23:24:33.155Z,24.83
2023-03-03T23:27:00.656Z,27.00
2023-03-03T23:29:27.321Z,27.80
2023-03-03T23:31:53.881Z,27.63
2023-03-03T23:34:20.476Z,23.17
2023-03-03T23:36:47.075Z,26.23
2023-03-03T23:39:13.733Z,29.75
2023-03-03T23:41:40.772Z,28.67
2023-03-03T23:44:07.299Z,27.92
2023-03-03T23:46:33.901Z,26.45
2023-03-03T23:49:01.931Z,28.27
2023-03-03T23:51:28.485Z,27.58
2023-03-03T23:53:55.191Z,28.15
2023-03-03T23:56:21.846Z,28.60
2023-03-03T23:58:48.462Z,28.42
